Pagina principale
METAR-TAF:

METAR-TAF

Aeroporti :

Aeroporto di Bologna-Borgo Panigale

Bologna, Italia

latitudine: 44-32N, longitudine: 011-18E, altezza: 36 m

Osservazione

Il bollettino è stato emesso 37 minuti fa, alle 01:20 UTC
Vento 1 kt da direzioni variabili
Temperature 4°C
Umidità 100%
Pressione 1026 hPa
Visibilità: 1300 m
Nuvoloso ad un'altezza di 1600 ft
pioggia, foschia

METAR: LIPE 250120Z VRB01KT 1300 R12/P1500N R30/P1500N RA BR BKN016 04/04 Q1026 REDZ

Ora: 02:57 (01:57 UTC)

Previsione

Il bollettino è stato emesso 2 ore e 57 minuti fa, alle 23:00 UTC
Previsione valida dal 25 alle 00 UTC al 25 alle 24 UTC
Vento 5 kt da direzioni variabili
Visibilità: 4000 m
Nubi sparse ad un'altezza di 2000 ft
foschia
Temporaneamente
dal 25 alle 00 UTC al 25 alle 12 UTC
rovesci di pioggia
Evoluzione graduale
dal 25 alle 15 UTC al 25 alle 18 UTC
foschia

TAF: LIPE 242300Z 2500/2524 VRB05KT 4000 BR SCT020 TEMPO 2500/2512 SHRA BECMG 2515/2518 BR

Osservazioni e previsioni meteorologiche di più di 4000 aeroporti (messaggi METAR e TAF).

Le stazioni disponibili sono rappresentate dai dischi gialli e rossi sulla carta.

Puntare il mouse per vedere il nome della stazione.

Clicca sopra per visualizzare le osservazioni e previsioni meteorologiche.

Per cambiare la mappa : fare clic sui pulsanti verdi con una croce nera per ingrandire, il pulsante verde con un trattino per diminuire, o sulla freccia verde per le mappe adiacenti.


METAR-TAF: